KCIU/CIU METAR and TAF weather

Enter ICAO airport designator
Station Type Date Time Source
KCIU METAR 2022/08/12 13:56 UTC NOAA

KCIU 121356Z AUTO 00000KT 8SM CLR 18/12 A3027 RMK AO2 SLP252 T01780117


Station Type Date Time Source
KCIU Decoded METAR 2022/08/12 13:56 UTC NOAA

Sault Ste Marie, Chippewa County International Airport, MI, United States (KCIU) 46-15N 084-28W
Aug 12, 2022 - 09:56 AM EDT / 2022.08.12 1356 UTC
Wind: Calm:0
Visibility: 8 mile(s):0
Sky conditions: clear
Temperature: 64.0 F (17.8 C)
Dew Point: 53.1 F (11.7 C)
Relative Humidity: 67%
Pressure (altimeter): 30.27 in. Hg (1025 hPa)
ob: KCIU 121356Z AUTO 00000KT 8SM CLR 18/12 A3027 RMK AO2 SLP252 T01780117
cycle: 14

Station Type Date Time Source
KCIU TAF 2022/08/12 12:30 UTC NOAA

TAF KCIU 121128Z 1212/1312 00000KT P6SM FEW180
FM121500 27005KT P6SM SKC
FM130100 VRB03KT P6SM SCT250

Example: see airport list